Time,TemperatureF,DewpointF,PressureIn,WindDirection,WindDirectionDegrees,WindSpeedMPH,WindSpeedGustMPH,Humidity,HourlyPrecipIn,Conditions,Clouds,dailyrainin,SolarRadiationWatts/m^2,SoftwareType,DateUTC
2013-06-05 00:01:00,71.3,69.5,30.02,South,175,0.0,0.0,94,0.00,,---,0.19,0.00,VWS V14.01,2013-06-05 04:01:00,
2013-06-05 00:02:00,71.2,69.4,30.02,South,175,0.0,0.0,94,0.00,,---,0.19,0.00,VWS V14.01,2013-06-05 04:02:00,
2013-06-05 00:03:00,71.2,69.4,30.02,South,175,0.0,0.0,94,0.00,,---,0.19,0.00,VWS V14.01,2013-06-05 04:03:00,
2013-06-05 00:08:00,71.1,69.6,30.02,South,175,0.0,0.0,95,0.00,,---,0.19,0.00,VWS V14.01,2013-06-05 04:08:00,
2013-06-05 00:14:00,71.1,69.6,30.02,South,175,0.0,0.0,95,0.00,,---,0.00,0.00,VWS V14.01,2013-06-05 04:14:00,
2013-06-05 00:19:00,71.1,69.6,30.02,South,175,0.0,0.0,95,0.00,,---,0.00,0.00,VWS V14.01,2013-06-05 04:19:00,
2013-06-05 00:27:00,71.0,69.5,30.02,South,175,0.0,0.0,95,0.00,,---,0.00,0.00,VWS V14.01,2013-06-05 04:27:00,
2013-06-05 00:32:00,71.0,69.5,30.02,South,175,0.0,0.0,95,0.00,,---,0.00,0.00,VWS V14.01,2013-06-05 04:32:00,
2013-06-05 00:37:00,70.9,69.4,30.03,South,175,0.0,0.0,95,0.00,,---,0.00,0.00,VWS V14.01,2013-06-05 04:37:00,
2013-06-05 00:42:00,70.8,69.3,30.03,South,175,0.0,0.0,95,0.00,,---,0.00,0.00,VWS V14.01,2013-06-05 04:42:00,
2013-06-05 00:47:00,70.9,69.7,30.03,South,175,0.0,0.0,96,0.00,,---,0.00,0.00,VWS V14.01,2013-06-05 04:47:00,
2013-06-05 00:53:00,71.0,69.8,30.03,South,175,0.0,0.0,96,0.00,,---,0.00,0.00,VWS V14.01,2013-06-05 04:53:00,
2013-06-05 00:58:00,71.0,69.8,30.03,South,175,0.0,0.0,96,0.00,,---,0.00,0.00,VWS V14.01,2013-06-05 04:58:00,
2013-06-05 01:03:00,71.2,70.0,30.03,South,175,0.0,0.0,96,0.00,,---,0.00,0.00,VWS V14.01,2013-06-05 05:03:00,
2013-06-05 01:08:00,71.4,70.2,30.03,South,175,0.0,0.0,96,0.00,,---,0.00,0.00,VWS V14.01,2013-06-05 05:08:00,
2013-06-05 01:13:00,71.7,70.5,30.03,South,175,0.0,0.0,96,0.00,,---,0.00,0.00,VWS V14.01,2013-06-05 05:13:00,
2013-06-05 01:18:00,72.0,70.8,30.03,South,175,0.0,0.0,96,0.00,,---,0.00,0.00,VWS V14.01,2013-06-05 05:18:00,
2013-06-05 01:23:00,72.1,70.9,30.02,South,175,0.0,0.0,96,0.00,,---,0.00,0.00,VWS V14.01,2013-06-05 05:23:00,
2013-06-05 01:29:00,72.3,71.1,30.02,South,175,0.0,0.0,96,0.00,,---,0.00,0.00,VWS V14.01,2013-06-05 05:29:00,
2013-06-05 01:34:00,72.3,71.1,30.02,South,175,0.0,0.0,96,0.00,,---,0.00,0.00,VWS V14.01,2013-06-05 05:34:00,
2013-06-05 01:39:00,72.2,71.0,30.01,South,175,0.0,0.0,96,0.00,,---,0.00,0.00,VWS V14.01,2013-06-05 05:39:00,
2013-06-05 01:44:00,72.2,71.0,30.01,South,175,0.0,0.0,96,0.00,,---,0.00,0.00,VWS V14.01,2013-06-05 05:44:00,
2013-06-05 01:49:00,72.1,70.6,30.01,South,175,0.0,0.0,95,0.00,,---,0.00,0.00,VWS V14.01,2013-06-05 05:49:00,
2013-06-05 01:54:00,72.0,70.5,30.01,South,175,0.0,0.0,95,0.00,,---,0.00,0.00,VWS V14.01,2013-06-05 05:54:00,
2013-06-05 01:59:00,72.1,70.9,30.01,South,175,0.0,0.0,96,0.00,,---,0.00,0.00,VWS V14.01,2013-06-05 05:59:00,
2013-06-05 02:04:00,72.3,71.1,30.01,South,175,0.0,0.0,96,0.00,,---,0.00,0.00,VWS V14.01,2013-06-05 06:04:00,
2013-06-05 02:09:00,72.5,71.3,30.02,South,175,0.0,0.0,96,0.00,,---,0.00,0.00,VWS V14.01,2013-06-05 06:09:00,
2013-06-05 02:15:00,72.5,71.3,30.01,South,175,0.0,1.0,96,0.00,,---,0.00,0.00,VWS V14.01,2013-06-05 06:15:00,
2013-06-05 02:20:00,72.6,71.4,30.01,South,175,0.0,0.0,96,0.00,,---,0.00,0.00,VWS V14.01,2013-06-05 06:20:00,
2013-06-05 02:25:00,72.6,71.4,30.01,South,175,0.0,0.0,96,0.00,,---,0.00,0.00,VWS V14.01,2013-06-05 06:25:00,
2013-06-05 02:30:00,72.6,71.4,30.01,South,175,0.0,0.0,96,0.00,,---,0.00,0.00,VWS V14.01,2013-06-05 06:30:00,
2013-06-05 02:35:00,72.6,71.4,30.01,South,175,0.0,0.0,96,0.00,,---,0.00,0.00,VWS V14.01,2013-06-05 06:35:00,
2013-06-05 02:40:00,72.6,71.4,30.01,South,175,0.0,0.0,96,0.00,,---,0.00,0.00,VWS V14.01,2013-06-05 06:40:00,
2013-06-05 02:45:00,72.7,71.5,30.00,South,175,0.0,0.0,96,0.00,,---,0.00,0.00,VWS V14.01,2013-06-05 06:45:00,
2013-06-05 02:50:00,72.7,71.5,30.00,South,175,0.0,0.0,96,0.00,,---,0.00,0.00,VWS V14.01,2013-06-05 06:50:00,
2013-06-05 02:55:00,72.7,71.5,30.00,South,175,0.0,0.0,96,0.00,,---,0.00,0.00,VWS V14.01,2013-06-05 06:55:00,
2013-06-05 03:01:00,72.7,71.5,30.00,South,175,0.0,0.0,96,0.00,,---,0.00,0.00,VWS V14.01,2013-06-05 07:01:00,
2013-06-05 03:06:00,72.8,71.6,30.00,South,175,0.0,0.0,96,0.00,,---,0.00,0.00,VWS V14.01,2013-06-05 07:06:00,
2013-06-05 03:11:00,72.8,71.6,30.00,South,175,0.0,0.0,96,0.00,,---,0.00,0.00,VWS V14.01,2013-06-05 07:11:00,
2013-06-05 03:16:00,72.8,71.6,30.00,South,175,0.0,0.0,96,0.00,,---,0.00,0.00,VWS V14.01,2013-06-05 07:16:00,
2013-06-05 03:21:00,72.9,71.7,29.99,South,175,0.0,2.0,96,0.00,,---,0.00,0.00,VWS V14.01,2013-06-05 07:21:00,
2013-06-05 03:27:00,72.9,71.7,29.99,South,175,0.0,2.0,96,0.00,,---,0.00,0.00,VWS V14.01,2013-06-05 07:27:00,
2013-06-05 03:32:00,73.0,71.8,29.99,South,175,0.0,0.0,96,0.00,,---,0.00,0.00,VWS V14.01,2013-06-05 07:32:00,
2013-06-05 03:37:00,73.0,72.1,29.99,South,175,0.0,1.0,97,0.00,,---,0.00,0.00,VWS V14.01,2013-06-05 07:37:00,
2013-06-05 03:42:00,73.0,72.1,29.99,South,175,0.0,0.0,97,0.00,,---,0.00,0.00,VWS V14.01,2013-06-05 07:42:00,
2013-06-05 03:47:00,73.1,72.2,29.99,South,175,0.0,1.0,97,0.00,,---,0.00,0.00,VWS V14.01,2013-06-05 07:47:00,
2013-06-05 03:52:00,73.1,72.2,29.99,South,175,0.0,0.0,97,0.00,,---,0.00,0.00,VWS V14.01,2013-06-05 07:52:00,
2013-06-05 03:58:00,73.2,72.3,29.99,South,175,0.0,2.0,97,0.00,,---,0.00,0.00,VWS V14.01,2013-06-05 07:58:00,
2013-06-05 04:03:00,73.2,72.3,29.99,South,175,0.0,0.0,97,0.00,,---,0.00,0.00,VWS V14.01,2013-06-05 08:03:00,
2013-06-05 04:08:00,73.2,72.3,29.99,South,175,1.0,1.0,97,0.00,,---,0.00,0.00,VWS V14.01,2013-06-05 08:08:00,
2013-06-05 04:13:00,73.3,72.4,29.99,South,175,0.0,1.0,97,0.00,,---,0.00,0.00,VWS V14.01,2013-06-05 08:13:00,
2013-06-05 04:18:00,73.3,72.4,29.99,South,175,0.0,2.0,97,0.00,,---,0.00,0.00,VWS V14.01,2013-06-05 08:18:00,
2013-06-05 04:23:00,73.4,72.5,29.99,South,175,0.0,3.0,97,0.00,,---,0.00,0.00,VWS V14.01,2013-06-05 08:23:00,
2013-06-05 04:28:00,73.5,72.6,29.99,South,175,0.0,1.0,97,0.00,,---,0.00,0.00,VWS V14.01,2013-06-05 08:28:00,
2013-06-05 04:33:00,73.5,72.6,29.99,South,175,0.0,0.0,97,0.00,,---,0.00,0.00,VWS V14.01,2013-06-05 08:33:00,
2013-06-05 04:38:00,73.5,72.6,29.99,South,175,0.0,1.0,97,0.00,,---,0.00,0.00,VWS V14.01,2013-06-05 08:38:00,
2013-06-05 04:43:00,73.5,72.6,30.00,South,175,0.0,3.0,97,0.00,,---,0.00,0.00,VWS V14.01,2013-06-05 08:43:00,
2013-06-05 04:48:00,73.5,72.6,30.00,South,175,0.0,1.0,97,0.00,,---,0.00,0.00,VWS V14.01,2013-06-05 08:48:00,
2013-06-05 04:53:00,73.5,72.6,30.00,South,175,0.0,0.0,97,0.00,,---,0.00,0.00,VWS V14.01,2013-06-05 08:53:00,
2013-06-05 04:58:00,73.5,72.6,30.00,South,175,0.0,1.0,97,0.00,,---,0.00,0.00,VWS V14.01,2013-06-05 08:58:00,
2013-06-05 05:03:00,73.5,72.6,30.00,South,175,0.0,2.0,97,0.00,,---,0.00,0.00,VWS V14.01,2013-06-05 09:03:00,
2013-06-05 05:08:00,73.5,72.6,30.00,South,175,0.0,0.0,97,0.00,,---,0.00,0.00,VWS V14.01,2013-06-05 09:08:00,
2013-06-05 05:13:00,73.5,72.6,30.01,South,175,0.0,0.0,97,0.00,,---,0.00,0.00,VWS V14.01,2013-06-05 09:13:00,
2013-06-05 05:18:00,73.5,72.6,30.01,South,175,0.0,2.0,97,0.00,,---,0.00,0.00,VWS V14.01,2013-06-05 09:18:00,
2013-06-05 05:24:00,73.6,72.7,30.01,South,175,0.0,0.0,97,0.00,,---,0.00,0.00,VWS V14.01,2013-06-05 09:24:00,
2013-06-05 05:29:00,73.6,72.7,30.01,South,175,0.0,0.0,97,0.00,,---,0.00,0.00,VWS V14.01,2013-06-05 09:29:00,
2013-06-05 05:34:00,73.7,72.8,30.01,South,175,0.0,0.0,97,0.00,,---,0.00,0.00,VWS V14.01,2013-06-05 09:34:00,
2013-06-05 05:39:00,73.7,72.8,30.01,South,175,0.0,0.0,97,0.00,,---,0.00,0.00,VWS V14.01,2013-06-05 09:39:00,
2013-06-05 05:44:00,73.7,72.8,30.01,South,175,1.0,2.0,97,0.00,,---,0.00,0.00,VWS V14.01,2013-06-05 09:44:00,
2013-06-05 05:51:00,73.7,72.8,30.01,South,175,1.0,1.0,97,0.00,,---,0.00,0.00,VWS V14.01,2013-06-05 09:51:00,
2013-06-05 05:56:00,73.8,72.9,30.02,South,175,0.0,2.0,97,0.00,,---,0.00,0.00,VWS V14.01,2013-06-05 09:56:00,
2013-06-05 06:01:00,73.8,72.9,30.02,South,175,0.0,1.0,97,0.00,,---,0.00,0.00,VWS V14.01,2013-06-05 10:01:00,
2013-06-05 06:07:00,73.9,73.0,30.02,South,175,0.0,0.0,97,0.00,,---,0.00,0.00,VWS V14.01,2013-06-05 10:07:00,
2013-06-05 06:12:00,73.9,73.0,30.02,South,175,0.0,1.0,97,0.00,,---,0.00,0.00,VWS V14.01,2013-06-05 10:12:00,
2013-06-05 06:17:00,73.9,73.0,30.03,South,175,0.0,1.0,97,0.00,,---,0.00,0.00,VWS V14.01,2013-06-05 10:17:00,
2013-06-05 06:22:00,73.9,73.0,30.02,South,175,0.0,0.0,97,0.00,,---,0.00,0.00,VWS V14.01,2013-06-05 10:22:00,
2013-06-05 06:27:00,74.0,73.1,30.03,South,175,0.0,3.0,97,0.00,,---,0.00,0.00,VWS V14.01,2013-06-05 10:27:00,
2013-06-05 06:32:00,74.0,72.8,30.03,South,175,0.0,1.0,96,0.00,,---,0.00,0.00,VWS V14.01,2013-06-05 10:32:00,
2013-06-05 06:37:00,74.0,72.8,30.02,South,175,0.0,2.0,96,0.00,,---,0.00,5.00,VWS V14.01,2013-06-05 10:37:00,
2013-06-05 06:42:00,74.1,72.9,30.02,South,175,0.0,0.0,96,0.00,,---,0.00,9.00,VWS V14.01,2013-06-05 10:42:00,
2013-06-05 06:48:00,74.2,73.0,30.03,South,175,0.0,1.0,96,0.00,,---,0.00,9.00,VWS V14.01,2013-06-05 10:48:00,
2013-06-05 06:53:00,74.2,73.0,30.03,South,175,0.0,0.0,96,0.00,,---,0.00,12.00,VWS V14.01,2013-06-05 10:53:00,
2013-06-05 06:58:00,74.2,73.0,30.03,South,175,0.0,0.0,96,0.00,,---,0.00,19.00,VWS V14.01,2013-06-05 10:58:00,
2013-06-05 07:03:00,74.2,73.0,30.03,South,175,0.0,0.0,96,0.00,,---,0.00,25.00,VWS V14.01,2013-06-05 11:03:00,
2013-06-05 07:08:00,74.2,73.0,30.03,South,175,0.0,0.0,96,0.00,,---,0.00,21.00,VWS V14.01,2013-06-05 11:08:00,
2013-06-05 07:13:00,74.3,73.1,30.03,South,175,0.0,0.0,96,0.00,,---,0.00,18.00,VWS V14.01,2013-06-05 11:13:00,
2013-06-05 07:18:00,74.4,73.2,30.03,South,175,0.0,0.0,96,0.00,,---,0.00,14.00,VWS V14.01,2013-06-05 11:18:00,
2013-06-05 07:23:00,74.4,73.2,30.03,South,175,0.0,0.0,96,0.00,,---,0.00,26.00,VWS V14.01,2013-06-05 11:23:00,
2013-06-05 07:28:00,74.4,73.2,30.03,South,175,0.0,0.0,96,0.00,,---,0.00,23.00,VWS V14.01,2013-06-05 11:28:00,
2013-06-05 07:33:00,74.5,73.3,30.03,South,175,0.0,2.0,96,0.00,,---,0.00,32.00,VWS V14.01,2013-06-05 11:33:00,
2013-06-05 07:38:00,74.5,73.3,30.03,South,175,0.0,0.0,96,0.00,,---,0.00,74.00,VWS V14.01,2013-06-05 11:38:00,
2013-06-05 07:44:00,74.6,73.4,30.03,South,175,0.0,0.0,96,0.00,,---,0.00,79.00,VWS V14.01,2013-06-05 11:44:00,
2013-06-05 07:49:00,74.8,73.6,30.03,South,175,0.0,0.0,96,0.00,,---,0.00,54.00,VWS V14.01,2013-06-05 11:49:00,
2013-06-05 07:54:00,75.0,73.5,30.02,South,175,0.0,0.0,95,0.00,,---,0.00,83.00,VWS V14.01,2013-06-05 11:54:00,
2013-06-05 07:59:00,75.2,73.7,30.02,South,175,0.0,2.0,95,0.00,,---,0.00,104.00,VWS V14.01,2013-06-05 11:59:00,
2013-06-05 08:04:00,75.4,73.9,30.02,South,175,0.0,0.0,95,0.00,,---,0.00,107.00,VWS V14.01,2013-06-05 12:04:00,
2013-06-05 08:09:00,75.6,73.8,30.02,South,175,0.0,1.0,94,0.00,,---,0.00,69.00,VWS V14.01,2013-06-05 12:09:00,
2013-06-05 08:14:00,75.5,73.7,30.03,South,175,0.0,0.0,94,0.00,,---,0.00,116.00,VWS V14.01,2013-06-05 12:14:00,
2013-06-05 08:19:00,76.0,74.5,30.02,South,175,0.0,1.0,95,0.00,,---,0.00,220.00,VWS V14.01,2013-06-05 12:19:00,
2013-06-05 08:25:00,76.2,74.3,30.02,South,175,0.0,0.0,94,0.00,,---,0.00,132.00,VWS V14.01,2013-06-05 12:25:00,
2013-06-05 08:30:00,76.3,74.1,30.03,South,175,0.0,0.0,93,0.00,,---,0.00,163.00,VWS V14.01,2013-06-05 12:30:00,
2013-06-05 08:35:00,76.5,74.3,30.02,South,175,0.0,0.0,93,0.00,,---,0.00,72.00,VWS V14.01,2013-06-05 12:35:00,
2013-06-05 08:40:00,76.4,73.9,30.03,South,175,0.0,3.0,92,0.00,,---,0.00,62.00,VWS V14.01,2013-06-05 12:40:00,
2013-06-05 08:45:00,76.3,73.8,30.03,South,175,0.0,2.0,92,0.00,,---,0.00,91.00,VWS V14.01,2013-06-05 12:45:00,
2013-06-05 08:50:00,76.3,74.1,30.03,South,175,0.0,3.0,93,0.00,,---,0.00,265.00,VWS V14.01,2013-06-05 12:50:00,
2013-06-05 08:55:00,76.9,74.4,30.03,South,175,0.0,0.0,92,0.00,,---,0.00,213.00,VWS V14.01,2013-06-05 12:55:00,
2013-06-05 09:00:00,77.1,74.6,30.03,South,175,2.0,3.0,92,0.00,,---,0.00,195.00,VWS V14.01,2013-06-05 13:00:00,
2013-06-05 09:05:00,77.3,74.8,30.03,SSE,167,0.0,1.0,92,0.00,,---,0.00,237.00,VWS V14.01,2013-06-05 13:05:00,
2013-06-05 09:11:00,77.4,74.2,30.03,SSE,166,0.0,4.0,90,0.00,,---,0.00,162.00,VWS V14.01,2013-06-05 13:11:00,
2013-06-05 09:16:00,77.3,74.1,30.03,SSE,157,2.0,3.0,90,0.00,,---,0.00,141.00,VWS V14.01,2013-06-05 13:16:00,
2013-06-05 09:21:00,77.1,73.6,30.04,SSE,150,0.0,4.0,89,0.00,,---,0.00,172.00,VWS V14.01,2013-06-05 13:21:00,
2013-06-05 09:27:00,77.2,74.0,30.03,SSE,149,1.0,2.0,90,0.00,,---,0.00,234.00,VWS V14.01,2013-06-05 13:27:00,
2013-06-05 09:32:00,77.5,74.0,30.03,SSE,147,0.0,6.0,89,0.00,,---,0.00,279.00,VWS V14.01,2013-06-05 13:32:00,
2013-06-05 09:37:00,77.9,74.4,30.03,SE,146,0.0,3.0,89,0.00,,---,0.00,288.00,VWS V14.01,2013-06-05 13:37:00,
2013-06-05 09:42:00,78.0,74.5,30.03,SE,136,2.0,7.0,89,0.00,,---,0.00,369.00,VWS V14.01,2013-06-05 13:42:00,
2013-06-05 09:47:00,78.5,74.7,30.03,SE,135,2.0,4.0,88,0.00,,---,0.00,338.00,VWS V14.01,2013-06-05 13:47:00,
2013-06-05 09:52:00,78.5,74.3,30.03,SE,134,0.0,2.0,87,0.00,,---,0.00,264.00,VWS V14.01,2013-06-05 13:52:00,
2013-06-05 09:57:00,78.4,74.2,30.04,SE,128,2.0,7.0,87,0.00,,---,0.00,202.00,VWS V14.01,2013-06-05 13:57:00,
2013-06-05 10:03:00,78.4,74.6,30.03,SE,128,0.0,4.0,88,0.00,,---,0.00,316.00,VWS V14.01,2013-06-05 14:03:00,
2013-06-05 10:08:00,79.2,74.7,30.03,ESE,123,0.0,3.0,86,0.00,,---,0.00,332.00,VWS V14.01,2013-06-05 14:08:00,
2013-06-05 10:13:00,79.7,75.5,30.03,ESE,123,1.0,3.0,87,0.00,,---,0.00,295.00,VWS V14.01,2013-06-05 14:13:00,
2013-06-05 10:18:00,79.6,74.7,30.03,ESE,119,0.0,5.0,85,0.00,,---,0.00,554.00,VWS V14.01,2013-06-05 14:18:00,
2013-06-05 10:23:00,80.0,75.1,30.03,ESE,109,3.0,8.0,85,0.00,,---,0.00,316.00,VWS V14.01,2013-06-05 14:23:00,
2013-06-05 10:28:00,79.7,74.8,30.02,ESE,110,0.0,7.0,85,0.00,,---,0.00,188.00,VWS V14.01,2013-06-05 14:28:00,
2013-06-05 10:33:00,79.2,74.3,30.02,ESE,105,3.0,6.0,85,0.00,,---,0.00,163.00,VWS V14.01,2013-06-05 14:33:00,
2013-06-05 10:38:00,79.0,74.5,30.02,ESE,114,0.0,8.0,86,0.00,,---,0.00,329.00,VWS V14.01,2013-06-05 14:38:00,
2013-06-05 10:44:00,79.1,74.6,30.02,SE,131,5.0,8.0,86,0.00,,---,0.00,411.00,VWS V14.01,2013-06-05 14:44:00,
2013-06-05 10:49:00,79.8,74.5,30.03,East,93,2.0,7.0,84,0.00,,---,0.00,455.00,VWS V14.01,2013-06-05 14:49:00,
2013-06-05 10:54:00,80.1,74.5,30.03,East,98,0.0,2.0,83,0.00,,---,0.00,448.00,VWS V14.01,2013-06-05 14:54:00,
2013-06-05 10:59:00,80.5,74.9,30.03,ESE,116,4.0,8.0,83,0.00,,---,0.00,487.00,VWS V14.01,2013-06-05 14:59:00,
2013-06-05 11:04:00,80.7,75.1,30.03,ESE,113,0.0,0.0,83,0.00,,---,0.00,424.00,VWS V14.01,2013-06-05 15:04:00,
2013-06-05 11:09:00,81.5,75.5,30.03,ESE,113,2.0,6.0,82,0.00,,---,0.00,380.00,VWS V14.01,2013-06-05 15:09:00,
2013-06-05 11:14:00,81.3,75.3,30.03,ESE,112,0.0,4.0,82,0.00,,---,0.00,253.00,VWS V14.01,2013-06-05 15:14:00,
2013-06-05 11:19:00,80.8,74.8,30.02,ESE,119,0.0,0.0,82,0.00,,---,0.00,255.00,VWS V14.01,2013-06-05 15:19:00,
2013-06-05 11:25:00,80.5,74.5,30.03,ESE,106,0.0,4.0,82,0.00,,---,0.00,260.00,VWS V14.01,2013-06-05 15:25:00,
2013-06-05 11:30:00,80.5,74.5,30.03,ESE,103,0.0,3.0,82,0.00,,---,0.00,202.00,VWS V14.01,2013-06-05 15:30:00,
2013-06-05 11:35:00,80.5,74.5,30.02,ESE,105,0.0,3.0,82,0.00,,---,0.00,183.00,VWS V14.01,2013-06-05 15:35:00,
2013-06-05 11:40:00,80.3,74.7,30.02,East,84,0.0,5.0,83,0.00,,---,0.00,311.00,VWS V14.01,2013-06-05 15:40:00,
2013-06-05 11:45:00,81.0,75.0,30.02,ESE,114,0.0,7.0,82,0.00,,---,0.00,399.00,VWS V14.01,2013-06-05 15:45:00,
2013-06-05 11:50:00,82.9,77.2,30.02,North,11,3.0,5.0,83,0.00,,---,0.00,1271.00,VWS V14.01,2013-06-05 15:50:00,
2013-06-05 11:55:00,84.3,76.7,30.02,East,101,0.0,1.0,78,0.00,,---,0.00,860.00,VWS V14.01,2013-06-05 15:55:00,
2013-06-05 12:00:00,85.0,75.4,30.01,SE,128,0.0,8.0,73,0.00,,---,0.00,1143.00,VWS V14.01,2013-06-05 16:00:00,
2013-06-05 12:05:00,84.2,76.2,30.01,East,96,0.0,6.0,77,0.00,,---,0.00,492.00,VWS V14.01,2013-06-05 16:05:00,
2013-06-05 12:11:00,83.7,74.9,30.01,SE,126,3.0,11.0,75,0.00,,---,0.00,1174.00,VWS V14.01,2013-06-05 16:11:00,
2013-06-05 12:16:00,84.2,75.4,30.01,SE,144,6.0,12.0,75,0.00,,---,0.00,1092.00,VWS V14.01,2013-06-05 16:16:00,
2013-06-05 12:21:00,84.5,75.3,30.01,SE,140,2.0,8.0,74,0.00,,---,0.00,1134.00,VWS V14.01,2013-06-05 16:21:00,
2013-06-05 12:26:00,84.6,75.8,30.01,North,11,0.0,7.0,75,0.00,,---,0.00,404.00,VWS V14.01,2013-06-05 16:26:00,
2013-06-05 12:31:00,83.7,75.3,30.01,ESE,117,0.0,4.0,76,0.00,,---,0.00,403.00,VWS V14.01,2013-06-05 16:31:00,
2013-06-05 12:37:00,84.5,75.7,30.00,ESE,122,2.0,5.0,75,0.00,,---,0.00,1162.00,VWS V14.01,2013-06-05 16:37:00,
2013-06-05 12:42:00,86.0,76.3,30.00,ENE,68,6.0,10.0,73,0.00,,---,0.00,1157.00,VWS V14.01,2013-06-05 16:42:00,
2013-06-05 12:47:00,86.3,75.4,30.00,SE,125,0.0,7.0,70,0.00,,---,0.00,1162.00,VWS V14.01,2013-06-05 16:47:00,
2013-06-05 12:52:00,86.0,75.5,30.00,ESE,112,0.0,7.0,71,0.00,,---,0.00,464.00,VWS V14.01,2013-06-05 16:52:00,
2013-06-05 12:57:00,84.6,75.4,30.00,ESE,115,0.0,4.0,74,0.00,,---,0.00,343.00,VWS V14.01,2013-06-05 16:57:00,
2013-06-05 13:02:00,84.2,75.0,30.00,ESE,113,0.0,4.0,74,0.00,,---,0.00,302.00,VWS V14.01,2013-06-05 17:02:00,
2013-06-05 13:07:00,84.1,75.3,29.99,ESE,111,1.0,7.0,75,0.00,,---,0.00,432.00,VWS V14.01,2013-06-05 17:07:00,
2013-06-05 13:13:00,84.6,75.4,29.99,SE,144,8.0,8.0,74,0.00,,---,0.00,410.00,VWS V14.01,2013-06-05 17:13:00,
2013-06-05 13:18:00,84.3,74.7,29.99,ENE,57,0.0,8.0,73,0.00,,---,0.00,415.00,VWS V14.01,2013-06-05 17:18:00,
2013-06-05 13:23:00,84.8,75.6,29.99,ESE,119,0.0,9.0,74,0.00,,---,0.00,1199.00,VWS V14.01,2013-06-05 17:23:00,
2013-06-05 13:28:00,86.3,76.6,29.98,ENE,70,0.0,9.0,73,0.00,,---,0.00,1137.00,VWS V14.01,2013-06-05 17:28:00,
2013-06-05 13:33:00,85.8,75.3,29.98,East,79,1.0,6.0,71,0.00,,---,0.00,432.00,VWS V14.01,2013-06-05 17:33:00,
2013-06-05 13:38:00,85.4,76.6,29.97,SE,139,0.0,6.0,75,0.00,,---,0.00,1194.00,VWS V14.01,2013-06-05 17:38:00,
2013-06-05 13:43:00,86.3,77.0,29.97,ENE,71,0.0,8.0,74,0.00,,---,0.00,1306.00,VWS V14.01,2013-06-05 17:43:00,
2013-06-05 13:48:00,86.6,76.9,29.97,ESE,108,4.0,4.0,73,0.00,,---,0.00,536.00,VWS V14.01,2013-06-05 17:48:00,
2013-06-05 13:53:00,86.2,75.3,29.97,ENE,69,9.0,9.0,70,0.00,,---,0.00,1260.00,VWS V14.01,2013-06-05 17:53:00,
2013-06-05 13:59:00,85.4,75.3,29.96,NNE,25,0.0,4.0,72,0.00,,---,0.00,1260.00,VWS V14.01,2013-06-05 17:59:00,
2013-06-05 14:04:00,85.0,74.6,29.97,SE,128,0.0,5.0,71,0.00,,---,0.00,237.00,VWS V14.01,2013-06-05 18:04:00,
2013-06-05 14:09:00,83.7,74.5,29.96,ESE,119,1.0,2.0,74,0.00,,---,0.00,120.00,VWS V14.01,2013-06-05 18:09:00,
2013-06-05 14:14:00,83.0,74.7,29.97,ESE,107,3.0,4.0,76,0.00,,---,0.00,58.00,VWS V14.01,2013-06-05 18:14:00,
2013-06-05 14:19:00,82.1,71.8,29.98,ESE,119,5.0,13.0,71,0.00,,---,0.00,11.00,VWS V14.01,2013-06-05 18:19:00,
2013-06-05 14:37:00,74.0,69.9,30.00,SE,145,4.0,10.0,87,0.28,,---,0.28,12.00,VWS V14.01,2013-06-05 18:37:00,
2013-06-05 14:42:00,72.9,69.8,30.01,SE,134,0.0,2.0,90,0.31,,---,0.31,11.00,VWS V14.01,2013-06-05 18:42:00,
2013-06-05 14:47:00,72.5,70.1,30.01,SE,134,0.0,0.0,92,0.34,,---,0.34,11.00,VWS V14.01,2013-06-05 18:47:00,
2013-06-05 14:52:00,72.1,70.0,30.01,SE,134,0.0,0.0,93,0.36,,---,0.36,12.00,VWS V14.01,2013-06-05 18:52:00,
2013-06-05 14:57:00,71.8,69.7,30.02,SE,132,0.0,0.0,93,0.37,,---,0.37,14.00,VWS V14.01,2013-06-05 18:57:00,
2013-06-05 15:03:00,71.6,69.8,30.02,SE,132,0.0,0.0,94,0.38,,---,0.38,14.00,VWS V14.01,2013-06-05 19:03:00,
2013-06-05 15:08:00,71.6,69.8,30.01,SE,134,1.0,1.0,94,0.39,,---,0.39,16.00,VWS V14.01,2013-06-05 19:08:00,
2013-06-05 15:13:00,71.7,69.9,30.00,SE,134,0.0,2.0,94,0.40,,---,0.40,18.00,VWS V14.01,2013-06-05 19:13:00,
2013-06-05 15:18:00,71.8,70.3,30.00,SE,134,0.0,0.0,95,0.40,,---,0.40,18.00,VWS V14.01,2013-06-05 19:18:00,
2013-06-05 15:23:00,72.0,70.5,30.00,SE,129,2.0,2.0,95,0.42,,---,0.42,18.00,VWS V14.01,2013-06-05 19:23:00,
2013-06-05 15:28:00,72.1,70.6,30.01,SE,126,2.0,3.0,95,0.42,,---,0.42,18.00,VWS V14.01,2013-06-05 19:28:00,
2013-06-05 15:34:00,72.0,70.5,30.00,SE,126,0.0,0.0,95,0.21,,---,0.44,18.00,VWS V14.01,2013-06-05 19:34:00,
2013-06-05 15:39:00,72.0,70.5,30.00,SE,126,0.0,0.0,95,0.17,,---,0.45,18.00,VWS V14.01,2013-06-05 19:39:00,
2013-06-05 15:44:00,72.1,70.6,30.00,SE,126,0.0,0.0,95,0.15,,---,0.47,18.00,VWS V14.01,2013-06-05 19:44:00,
2013-06-05 15:49:00,72.2,71.0,30.00,SE,126,0.0,0.0,96,0.14,,---,0.48,18.00,VWS V14.01,2013-06-05 19:49:00,
2013-06-05 15:54:00,72.3,71.1,30.00,SE,126,0.0,0.0,96,0.13,,---,0.49,18.00,VWS V14.01,2013-06-05 19:54:00,
2013-06-05 15:59:00,72.4,71.2,30.00,SE,126,1.0,1.0,96,0.12,,---,0.49,16.00,VWS V14.01,2013-06-05 19:59:00,
2013-06-05 16:05:00,72.4,71.2,30.00,ESE,122,1.0,3.0,96,0.12,,---,0.50,16.00,VWS V14.01,2013-06-05 20:05:00,
2013-06-05 16:10:00,72.3,71.1,30.00,ESE,102,3.0,3.0,96,0.12,,---,0.51,14.00,VWS V14.01,2013-06-05 20:10:00,
2013-06-05 16:15:00,72.2,71.0,29.99,East,101,3.0,3.0,96,0.12,,---,0.52,14.00,VWS V14.01,2013-06-05 20:15:00,
2013-06-05 16:20:00,72.1,70.9,29.99,East,98,0.0,0.0,96,0.12,,---,0.52,14.00,VWS V14.01,2013-06-05 20:20:00,
2013-06-05 16:25:00,72.2,71.0,29.99,East,98,0.0,0.0,96,0.12,,---,0.54,12.00,VWS V14.01,2013-06-05 20:25:00,
2013-06-05 16:30:00,72.4,71.2,29.99,East,98,2.0,3.0,96,0.13,,---,0.55,12.00,VWS V14.01,2013-06-05 20:30:00,
2013-06-05 16:35:00,72.4,71.2,29.99,East,98,0.0,3.0,96,0.12,,---,0.56,12.00,VWS V14.01,2013-06-05 20:35:00,
2013-06-05 16:40:00,72.5,71.3,30.00,East,98,0.0,3.0,96,0.13,,---,0.58,12.00,VWS V14.01,2013-06-05 20:40:00,
2013-06-05 16:45:00,72.6,71.4,30.00,East,98,0.0,0.0,96,0.13,,---,0.60,12.00,VWS V14.01,2013-06-05 20:45:00,
2013-06-05 16:50:00,72.7,71.5,29.99,East,98,0.0,0.0,96,0.14,,---,0.62,12.00,VWS V14.01,2013-06-05 20:50:00,
2013-06-05 16:56:00,72.7,71.5,29.99,East,98,2.0,3.0,96,0.14,,---,0.63,12.00,VWS V14.01,2013-06-05 20:56:00,
2013-06-05 17:01:00,72.6,71.4,29.99,East,98,0.0,0.0,96,0.15,,---,0.64,14.00,VWS V14.01,2013-06-05 21:01:00,
2013-06-05 17:06:00,72.7,71.5,29.98,East,92,0.0,6.0,96,0.16,,---,0.66,16.00,VWS V14.01,2013-06-05 21:06:00,
2013-06-05 17:11:00,72.7,71.5,29.98,East,85,0.0,5.0,96,0.17,,---,0.68,19.00,VWS V14.01,2013-06-05 21:11:00,
2013-06-05 17:16:00,72.8,71.6,29.98,ENE,72,4.0,5.0,96,0.18,,---,0.70,25.00,VWS V14.01,2013-06-05 21:16:00,
2013-06-05 17:22:00,72.9,71.7,29.99,ENE,71,0.0,3.0,96,0.19,,---,0.71,33.00,VWS V14.01,2013-06-05 21:22:00,
2013-06-05 17:27:00,73.0,72.1,29.99,ENE,71,0.0,0.0,97,0.18,,---,0.72,47.00,VWS V14.01,2013-06-05 21:27:00,
2013-06-05 17:32:00,73.2,72.3,29.98,ENE,71,0.0,0.0,97,0.18,,---,0.73,69.00,VWS V14.01,2013-06-05 21:32:00,
2013-06-05 17:37:00,73.4,72.5,29.98,ENE,71,0.0,0.0,97,0.18,,---,0.74,84.00,VWS V14.01,2013-06-05 21:37:00,
2013-06-05 17:42:00,73.7,72.8,29.98,ENE,71,0.0,0.0,97,0.17,,---,0.75,88.00,VWS V14.01,2013-06-05 21:42:00,
2013-06-05 17:47:00,74.0,73.1,29.97,ENE,71,0.0,0.0,97,0.16,,---,0.76,100.00,VWS V14.01,2013-06-05 21:47:00,
2013-06-05 17:52:00,74.1,73.2,29.97,ENE,71,0.0,2.0,97,0.15,,---,0.76,93.00,VWS V14.01,2013-06-05 21:52:00,
2013-06-05 17:57:00,74.3,73.4,29.96,ENE,71,0.0,0.0,97,0.14,,---,0.76,97.00,VWS V14.01,2013-06-05 21:57:00,
2013-06-05 18:02:00,74.5,73.6,29.96,ENE,71,0.0,3.0,97,0.12,,---,0.76,95.00,VWS V14.01,2013-06-05 22:02:00,
2013-06-05 18:08:00,74.4,73.5,29.96,East,87,0.0,5.0,97,0.11,,---,0.76,97.00,VWS V14.01,2013-06-05 22:08:00,
2013-06-05 18:13:00,74.5,73.6,29.96,ESE,122,0.0,7.0,97,0.10,,---,0.76,104.00,VWS V14.01,2013-06-05 22:13:00,
2013-06-05 18:18:00,74.5,73.6,29.96,ESE,122,0.0,2.0,97,0.09,,---,0.77,114.00,VWS V14.01,2013-06-05 22:18:00,
2013-06-05 18:23:00,74.5,73.6,29.95,East,98,3.0,7.0,97,0.07,,---,0.77,116.00,VWS V14.01,2013-06-05 22:23:00,
2013-06-05 18:28:00,74.5,73.6,29.95,SE,125,2.0,7.0,97,0.05,,---,0.77,105.00,VWS V14.01,2013-06-05 22:28:00,
2013-06-05 18:33:00,74.4,73.2,29.94,ESE,109,4.0,4.0,96,0.05,,---,0.77,114.00,VWS V14.01,2013-06-05 22:33:00,
2013-06-05 18:38:00,74.3,73.1,29.95,SSE,161,8.0,12.0,96,0.03,,---,0.77,114.00,VWS V14.01,2013-06-05 22:38:00,
2013-06-05 18:43:00,74.0,72.8,29.96,SSW,194,0.0,9.0,96,0.02,,---,0.77,84.00,VWS V14.01,2013-06-05 22:43:00,
2013-06-05 18:48:00,73.7,72.2,29.96,ESE,109,8.0,11.0,95,0.02,,---,0.77,70.00,VWS V14.01,2013-06-05 22:48:00,
2013-06-05 18:53:00,73.3,71.8,29.96,SE,142,3.0,10.0,95,0.01,,---,0.77,60.00,VWS V14.01,2013-06-05 22:53:00,
2013-06-05 18:59:00,73.0,71.5,29.97,ESE,115,2.0,3.0,95,0.01,,---,0.77,69.00,VWS V14.01,2013-06-05 22:59:00,
2013-06-05 19:04:00,72.9,71.4,29.97,SE,140,5.0,5.0,95,0.01,,---,0.77,62.00,VWS V14.01,2013-06-05 23:04:00,
2013-06-05 19:09:00,72.7,71.2,29.97,ESE,119,1.0,1.0,95,0.01,,---,0.77,65.00,VWS V14.01,2013-06-05 23:09:00,
2013-06-05 19:14:00,72.8,71.3,29.97,SE,130,0.0,0.0,95,0.01,,---,0.77,86.00,VWS V14.01,2013-06-05 23:14:00,
2013-06-05 19:19:00,72.8,71.3,29.96,SE,131,0.0,0.0,95,0.00,,---,0.77,62.00,VWS V14.01,2013-06-05 23:19:00,
2013-06-05 19:24:00,72.8,71.3,29.96,SE,133,0.0,2.0,95,0.00,,---,0.77,46.00,VWS V14.01,2013-06-05 23:24:00,
2013-06-05 19:29:00,72.8,71.3,29.96,SE,133,0.0,1.0,95,0.00,,---,0.77,33.00,VWS V14.01,2013-06-05 23:29:00,
2013-06-05 19:35:00,72.8,71.3,29.96,SE,126,0.0,2.0,95,0.00,,---,0.77,49.00,VWS V14.01,2013-06-05 23:35:00,
2013-06-05 19:40:00,72.9,71.4,29.95,SE,126,0.0,0.0,95,0.00,,---,0.77,49.00,VWS V14.01,2013-06-05 23:40:00,
2013-06-05 19:45:00,73.0,71.8,29.95,SE,128,0.0,0.0,96,0.00,,---,0.77,44.00,VWS V14.01,2013-06-05 23:45:00,
2013-06-05 19:50:00,73.0,71.8,29.95,SE,126,0.0,0.0,96,0.00,,---,0.77,32.00,VWS V14.01,2013-06-05 23:50:00,
2013-06-05 19:55:00,73.0,71.8,29.95,SE,126,0.0,2.0,96,0.00,,---,0.77,21.00,VWS V14.01,2013-06-05 23:55:00,
2013-06-05 20:00:00,73.1,71.9,29.95,SE,126,0.0,0.0,96,0.00,,---,0.77,16.00,VWS V14.01,2013-06-06 00:00:00,
2013-06-05 20:05:00,73.1,71.9,29.95,SE,126,3.0,4.0,96,0.00,,---,0.77,12.00,VWS V14.01,2013-06-06 00:05:00,
2013-06-05 20:11:00,73.1,71.9,29.95,SE,126,1.0,3.0,96,0.00,,---,0.77,0.00,VWS V14.01,2013-06-06 00:11:00,
2013-06-05 20:16:00,73.2,72.0,29.95,East,101,0.0,0.0,96,0.00,,---,0.77,0.00,VWS V14.01,2013-06-06 00:16:00,
2013-06-05 20:21:00,73.2,72.0,29.95,NNE,26,4.0,4.0,96,0.00,,---,0.77,0.00,VWS V14.01,2013-06-06 00:21:00,
2013-06-05 20:26:00,73.1,71.6,29.95,ESE,111,0.0,8.0,95,0.00,,---,0.77,0.00,VWS V14.01,2013-06-06 00:26:00,
2013-06-05 20:31:00,73.1,71.6,29.95,SE,127,2.0,9.0,95,0.00,,---,0.77,0.00,VWS V14.01,2013-06-06 00:31:00,
2013-06-05 20:36:00,73.2,72.0,29.95,SE,135,2.0,8.0,96,0.00,,---,0.77,0.00,VWS V14.01,2013-06-06 00:36:00,
2013-06-05 20:41:00,73.2,72.0,29.96,SSE,159,0.0,7.0,96,0.00,,---,0.77,0.00,VWS V14.01,2013-06-06 00:41:00,
2013-06-05 20:47:00,73.2,72.0,29.96,SE,144,0.0,5.0,96,0.00,,---,0.77,0.00,VWS V14.01,2013-06-06 00:47:00,
2013-06-05 20:52:00,73.2,72.0,29.96,East,84,2.0,8.0,96,0.00,,---,0.77,0.00,VWS V14.01,2013-06-06 00:52:00,
2013-06-05 20:57:00,73.2,72.0,29.96,SE,132,2.0,7.0,96,0.00,,---,0.77,0.00,VWS V14.01,2013-06-06 00:57:00,
2013-06-05 21:02:00,73.2,72.0,29.95,East,98,0.0,6.0,96,0.00,,---,0.77,0.00,VWS V14.01,2013-06-06 01:02:00,
2013-06-05 21:07:00,73.2,72.0,29.95,ESE,109,0.0,4.0,96,0.00,,---,0.77,0.00,VWS V14.01,2013-06-06 01:07:00,
2013-06-05 21:12:00,73.2,72.0,29.95,ESE,111,1.0,2.0,96,0.00,,---,0.77,0.00,VWS V14.01,2013-06-06 01:12:00,
2013-06-05 21:17:00,73.1,71.9,29.96,ESE,111,0.0,3.0,96,0.00,,---,0.77,0.00,VWS V14.01,2013-06-06 01:17:00,
2013-06-05 21:22:00,73.2,72.0,29.96,SE,129,0.0,3.0,96,0.00,,---,0.77,0.00,VWS V14.01,2013-06-06 01:22:00,
2013-06-05 21:28:00,73.2,72.0,29.96,SE,129,1.0,3.0,96,0.00,,---,0.77,0.00,VWS V14.01,2013-06-06 01:28:00,
2013-06-05 21:33:00,73.2,72.0,29.96,SE,127,1.0,3.0,96,0.00,,---,0.77,0.00,VWS V14.01,2013-06-06 01:33:00,
2013-06-05 21:38:00,73.2,72.0,29.97,SE,128,0.0,4.0,96,0.00,,---,0.77,0.00,VWS V14.01,2013-06-06 01:38:00,
2013-06-05 21:43:00,73.2,72.0,29.97,SE,127,3.0,4.0,96,0.00,,---,0.77,0.00,VWS V14.01,2013-06-06 01:43:00,
2013-06-05 21:48:00,73.2,72.0,29.97,SE,127,3.0,4.0,96,0.00,,---,0.77,0.00,VWS V14.01,2013-06-06 01:48:00,
2013-06-05 21:53:00,73.2,72.0,29.97,ESE,117,0.0,6.0,96,0.00,,---,0.77,0.00,VWS V14.01,2013-06-06 01:53:00,
2013-06-05 21:59:00,73.2,72.0,29.97,ESE,117,0.0,0.0,96,0.00,,---,0.77,0.00,VWS V14.01,2013-06-06 01:59:00,
2013-06-05 22:04:00,73.2,72.0,29.98,SSE,162,0.0,0.0,96,0.00,,---,0.77,0.00,VWS V14.01,2013-06-06 02:04:00,
2013-06-05 22:09:00,73.2,72.0,29.98,SE,136,4.0,5.0,96,0.00,,---,0.77,0.00,VWS V14.01,2013-06-06 02:09:00,
2013-06-05 22:14:00,73.1,71.9,29.98,SE,135,0.0,0.0,96,0.00,,---,0.77,0.00,VWS V14.01,2013-06-06 02:14:00,
2013-06-05 22:19:00,73.1,71.9,29.98,SE,135,0.0,0.0,96,0.00,,---,0.77,0.00,VWS V14.01,2013-06-06 02:19:00,
2013-06-05 22:24:00,73.1,71.9,29.98,SSE,153,4.0,5.0,96,0.00,,---,0.77,0.00,VWS V14.01,2013-06-06 02:24:00,
2013-06-05 22:29:00,73.0,71.8,29.98,ESE,121,5.0,5.0,96,0.00,,---,0.77,0.00,VWS V14.01,2013-06-06 02:29:00,
2013-06-05 22:34:00,72.8,71.3,29.99,SE,132,4.0,4.0,95,0.00,,---,0.77,0.00,VWS V14.01,2013-06-06 02:34:00,
2013-06-05 22:39:00,72.7,71.2,29.98,ESE,113,3.0,6.0,95,0.01,,---,0.78,0.00,VWS V14.01,2013-06-06 02:39:00,
2013-06-05 22:44:00,72.6,71.1,29.97,ESE,113,2.0,2.0,95,0.01,,---,0.78,0.00,VWS V14.01,2013-06-06 02:44:00,
2013-06-05 22:50:00,72.6,71.1,29.97,SE,136,3.0,5.0,95,0.01,,---,0.78,0.00,VWS V14.01,2013-06-06 02:50:00,
2013-06-05 22:55:00,72.5,71.0,29.97,SE,140,0.0,5.0,95,0.01,,---,0.78,0.00,VWS V14.01,2013-06-06 02:55:00,
2013-06-05 23:00:00,72.4,70.9,29.97,ESE,113,4.0,8.0,95,0.01,,---,0.78,0.00,VWS V14.01,2013-06-06 03:00:00,
2013-06-05 23:05:00,72.3,70.8,29.98,SSE,147,2.0,5.0,95,0.01,,---,0.78,0.00,VWS V14.01,2013-06-06 03:05:00,
2013-06-05 23:10:00,72.2,70.7,29.97,SE,139,0.0,3.0,95,0.01,,---,0.78,0.00,VWS V14.01,2013-06-06 03:10:00,
2013-06-05 23:15:00,72.1,70.6,29.97,SE,136,2.0,3.0,95,0.01,,---,0.78,0.00,VWS V14.01,2013-06-06 03:15:00,
2013-06-05 23:20:00,72.0,70.5,29.97,SE,134,3.0,4.0,95,0.01,,---,0.78,0.00,VWS V14.01,2013-06-06 03:20:00,
2013-06-05 23:25:00,72.0,70.5,29.97,SE,132,4.0,4.0,95,0.01,,---,0.78,0.00,VWS V14.01,2013-06-06 03:25:00,
2013-06-05 23:30:00,71.9,70.4,29.97,SE,137,0.0,3.0,95,0.01,,---,0.78,0.00,VWS V14.01,2013-06-06 03:30:00,
2013-06-05 23:36:00,71.9,70.4,29.97,SE,129,0.0,4.0,95,0.01,,---,0.78,0.00,VWS V14.01,2013-06-06 03:36:00,
2013-06-05 23:41:00,71.9,70.4,29.97,ESE,109,0.0,4.0,95,0.00,,---,0.78,0.00,VWS V14.01,2013-06-06 03:41:00,
2013-06-05 23:46:00,71.9,70.7,29.97,ESE,111,0.0,4.0,96,0.00,,---,0.78,0.00,VWS V14.01,2013-06-06 03:46:00,
2013-06-05 23:51:00,71.9,70.7,29.97,SE,127,0.0,6.0,96,0.00,,---,0.78,0.00,VWS V14.01,2013-06-06 03:51:00,
2013-06-05 23:56:00,71.8,70.6,29.96,SE,132,3.0,5.0,96,0.00,,---,0.78,0.00,VWS V14.01,2013-06-06 03:56:00,